createdAt,value
2018-05-02T00:06:35.248Z,1.10
2018-05-02T00:11:38.679Z,1.17
2018-05-02T00:16:46.231Z,0.90
2018-05-02T00:21:49.196Z,0.90
2018-05-02T00:26:55.558Z,1.03
2018-05-02T00:31:59.676Z,1.10
2018-05-02T00:37:04.482Z,1.00
2018-05-02T00:52:24.921Z,1.00
2018-05-02T01:02:37.409Z,1.30
2018-05-02T01:07:42.587Z,1.07
2018-05-02T01:12:46.164Z,1.10
2018-05-02T01:17:49.257Z,0.93
2018-05-02T01:22:52.332Z,0.70
2018-05-02T01:27:56.371Z,1.10
2018-05-02T01:38:11.926Z,1.00
2018-05-02T01:43:19.437Z,0.90
2018-05-02T01:48:23.329Z,1.10
2018-05-02T01:53:28.263Z,1.07
2018-05-02T01:58:33.636Z,1.00
2018-05-02T02:03:41.038Z,0.87
2018-05-02T02:08:44.549Z,1.10
2018-05-02T02:13:48.010Z,1.17
2018-05-02T02:18:51.010Z,1.00
2018-05-02T02:23:55.139Z,1.47
2018-05-02T02:29:00.434Z,1.00
2018-05-02T02:34:04.565Z,1.00
2018-05-02T02:39:14.883Z,1.30
2018-05-02T02:44:18.655Z,1.10
2018-05-02T02:49:21.863Z,1.00
2018-05-02T02:59:31.690Z,0.90
2018-05-02T03:04:34.556Z,1.03
2018-05-02T03:09:39.789Z,1.00
2018-05-02T03:14:42.904Z,1.20
2018-05-02T03:19:47.956Z,1.20
2018-05-02T03:24:51.407Z,1.07
2018-05-02T03:30:00.592Z,1.03
2018-05-02T03:40:12.171Z,0.80
2018-05-02T03:45:17.366Z,0.90
2018-05-02T03:50:23.654Z,1.30
2018-05-02T03:55:28.578Z,1.10
2018-05-02T04:00:46.735Z,1.17
2018-05-02T04:06:03.041Z,0.73
2018-05-02T04:11:07.472Z,1.13
2018-05-02T04:16:14.951Z,0.93
2018-05-02T04:21:19.120Z,1.00
2018-05-02T04:26:26.654Z,1.00
2018-05-02T04:31:30.344Z,1.00
2018-05-02T04:41:42.152Z,1.00
2018-05-02T04:46:45.463Z,1.10
2018-05-02T04:51:50.080Z,1.30
2018-05-02T04:56:53.782Z,1.17
2018-05-02T05:01:56.869Z,1.40
2018-05-02T05:06:59.744Z,1.40
2018-05-02T05:12:05.986Z,1.90
2018-05-02T05:17:13.299Z,1.10
2018-05-02T05:22:16.164Z,1.00
2018-05-02T05:27:24.448Z,1.40
2018-05-02T05:32:29.219Z,1.37
2018-05-02T05:37:33.834Z,0.90
2018-05-02T05:52:54.198Z,1.10
2018-05-02T05:57:59.478Z,1.00
2018-05-02T06:08:11.217Z,1.23
2018-05-02T06:13:14.684Z,1.20
2018-05-02T06:18:20.479Z,1.50
2018-05-02T06:23:27.999Z,1.20
2018-05-02T06:28:31.458Z,1.23
2018-05-02T06:33:35.623Z,1.40
2018-05-02T06:43:48.365Z,1.20
2018-05-02T06:48:53.911Z,1.50
2018-05-02T06:53:59.285Z,1.13
2018-05-02T06:59:03.822Z,1.40
2018-05-02T07:04:11.699Z,1.30
2018-05-02T07:09:17.197Z,1.30
2018-05-02T07:14:22.220Z,1.00
2018-05-02T07:19:26.572Z,1.60
2018-05-02T07:24:34.679Z,1.00
2018-05-02T07:29:39.644Z,1.20
2018-05-02T07:34:47.078Z,1.27
2018-05-02T07:39:54.255Z,1.17
2018-05-02T07:50:11.700Z,1.17
2018-05-02T07:55:17.178Z,1.30
2018-05-02T08:05:33.340Z,1.33
2018-05-02T08:10:43.690Z,1.53
2018-05-02T08:21:00.210Z,1.10
2018-05-02T08:26:08.309Z,1.10
2018-05-02T08:31:15.152Z,0.97
2018-05-02T08:36:26.180Z,1.40
2018-05-02T09:02:33.930Z,1.10
2018-05-02T09:07:42.180Z,0.90
2018-05-02T09:12:53.652Z,1.60
2018-05-02T09:23:09.214Z,1.40
2018-05-02T09:28:19.566Z,1.20
2018-05-02T09:49:13.867Z,1.30
2018-05-02T09:54:22.546Z,1.40
2018-05-02T10:04:39.393Z,1.50
2018-05-02T10:09:46.842Z,1.40
2018-05-02T10:14:58.392Z,1.57
2018-05-02T10:20:05.702Z,1.47
2018-05-02T10:35:33.225Z,1.83
2018-05-02T10:40:38.643Z,1.30
2018-05-02T10:45:43.550Z,1.27
2018-05-02T10:56:11.338Z,1.47
2018-05-02T11:01:30.116Z,1.43
2018-05-02T11:06:35.053Z,1.20
2018-05-02T11:16:55.237Z,1.50
2018-05-02T11:22:00.510Z,1.40
2018-05-02T11:32:17.602Z,1.90
2018-05-02T11:42:30.580Z,1.43
2018-05-02T11:52:49.412Z,1.30
2018-05-02T11:57:55.176Z,1.70
2018-05-02T12:08:06.649Z,1.50
2018-05-02T12:13:13.273Z,1.63
2018-05-02T12:18:24.358Z,1.33
2018-05-02T12:23:30.857Z,1.70
2018-05-02T12:28:38.855Z,1.57
2018-05-02T12:33:46.316Z,2.03
2018-05-02T12:38:51.300Z,1.63
2018-05-02T12:43:56.063Z,1.27
2018-05-02T12:54:08.176Z,2.23
2018-05-02T12:59:11.923Z,1.07
2018-05-02T13:04:15.617Z,1.10
2018-05-02T13:14:28.858Z,1.73
2018-05-02T13:19:35.957Z,1.30
2018-05-02T13:24:40.753Z,1.30
2018-05-02T13:29:47.466Z,1.30
2018-05-02T13:34:54.016Z,1.63
2018-05-02T13:39:58.725Z,1.30
2018-05-02T13:45:03.574Z,1.50
2018-05-02T14:00:24.178Z,1.27
2018-05-02T14:05:27.819Z,1.27
2018-05-02T14:10:33.110Z,0.80
2018-05-02T14:15:38.242Z,1.40
2018-05-02T14:20:41.791Z,1.40
2018-05-02T14:25:45.993Z,1.23
2018-05-02T14:30:52.554Z,1.60
2018-05-02T14:35:57.976Z,1.47
2018-05-02T14:41:04.720Z,1.30
2018-05-02T14:46:07.915Z,1.40
2018-05-02T14:51:12.540Z,1.13
2018-05-02T14:56:18.173Z,1.40
2018-05-02T15:01:24.126Z,1.07
2018-05-02T15:06:31.407Z,1.13
2018-05-02T15:11:43.346Z,1.23
2018-05-02T15:22:05.840Z,1.40
2018-05-02T15:27:11.486Z,1.10
2018-05-02T15:32:15.645Z,1.40
2018-05-02T15:37:22.554Z,1.10
2018-05-02T15:42:26.417Z,1.40
2018-05-02T15:47:31.524Z,1.60
2018-05-02T15:52:38.558Z,1.07
2018-05-02T16:02:56.213Z,1.30
2018-05-02T16:08:02.529Z,1.03
2018-05-02T16:18:20.070Z,1.57
2018-05-02T16:23:25.238Z,1.60
2018-05-02T16:28:30.993Z,1.30
2018-05-02T16:33:36.151Z,1.23
2018-05-02T16:38:45.316Z,1.30
2018-05-02T16:43:50.042Z,1.30
2018-05-02T16:48:54.059Z,1.27
2018-05-02T16:53:59.862Z,1.50
2018-05-02T16:59:04.822Z,1.57
2018-05-02T17:04:09.902Z,1.60
2018-05-02T17:09:12.932Z,1.50
2018-05-02T17:14:17.244Z,1.27
2018-05-02T17:19:26.880Z,1.60
2018-05-02T17:29:40.294Z,1.67
2018-05-02T17:34:43.517Z,1.70
2018-05-02T17:39:47.009Z,1.63
2018-05-02T17:44:50.609Z,1.40
2018-05-02T17:49:54.462Z,1.30
2018-05-02T17:54:58.731Z,1.30
2018-05-02T18:00:02.781Z,1.47
2018-05-02T18:05:06.115Z,1.30
2018-05-02T18:10:10.191Z,1.47
2018-05-02T18:15:16.566Z,1.70
2018-05-02T18:20:20.544Z,1.40
2018-05-02T18:25:25.556Z,1.47
2018-05-02T18:30:29.293Z,1.50
2018-05-02T18:35:33.724Z,1.77
2018-05-02T18:40:36.966Z,2.00
2018-05-02T18:45:40.592Z,1.80
2018-05-02T18:50:44.048Z,2.40
2018-05-02T18:55:48.529Z,2.30
2018-05-02T19:00:52.189Z,1.50
2018-05-02T19:05:55.189Z,5.30
2018-05-02T19:10:58.805Z,2.00
2018-05-02T19:16:02.756Z,1.80
2018-05-02T19:26:18.242Z,1.90
2018-05-02T19:36:34.485Z,2.10
2018-05-02T19:41:43.692Z,1.63
2018-05-02T19:46:50.447Z,1.80
2018-05-02T19:51:59.758Z,1.67
2018-05-02T19:57:04.610Z,1.60
2018-05-02T20:02:15.749Z,2.00
2018-05-02T20:07:24.885Z,2.03
2018-05-02T20:12:34.176Z,2.30
2018-05-02T20:17:37.748Z,2.13
2018-05-02T20:22:40.821Z,2.70
2018-05-02T20:27:44.375Z,2.10
2018-05-02T20:32:47.152Z,2.30
2018-05-02T20:37:51.633Z,2.17
2018-05-02T20:42:55.852Z,2.40
2018-05-02T20:47:59.274Z,2.30
2018-05-02T20:53:04.056Z,2.50
2018-05-02T20:58:07.127Z,2.20
2018-05-02T21:03:10.276Z,2.00
2018-05-02T21:08:16.336Z,1.90
2018-05-02T21:13:19.798Z,2.50
2018-05-02T21:18:22.798Z,2.33
2018-05-02T21:23:25.507Z,2.10
2018-05-02T21:28:29.786Z,2.60
2018-05-02T21:33:32.664Z,1.90
2018-05-02T21:38:36.623Z,2.03
2018-05-02T21:43:41.711Z,2.50
2018-05-02T21:48:44.616Z,1.70
2018-05-02T21:53:47.548Z,2.00
2018-05-02T21:58:51.077Z,2.03
2018-05-02T22:03:56.439Z,2.13
2018-05-02T22:08:59.932Z,2.83
2018-05-02T22:14:02.800Z,2.53
2018-05-02T22:19:05.853Z,2.90
2018-05-02T22:24:09.532Z,2.53
2018-05-02T22:29:13.566Z,2.30
2018-05-02T22:34:16.493Z,2.77
2018-05-02T22:39:23.193Z,2.93
2018-05-02T22:44:26.309Z,3.07
2018-05-02T22:49:29.304Z,2.37
2018-05-02T22:54:31.832Z,2.43
2018-05-02T22:59:35.822Z,1.93
2018-05-02T23:04:39.171Z,2.10
2018-05-02T23:09:42.577Z,2.47
2018-05-02T23:14:45.501Z,2.50
2018-05-02T23:19:49.002Z,2.53
2018-05-02T23:24:53.350Z,2.73
2018-05-02T23:29:59.041Z,3.40
2018-05-02T23:35:03.720Z,2.50
2018-05-02T23:40:07.257Z,3.07
2018-05-02T23:45:10.934Z,2.70
2018-05-02T23:50:13.881Z,3.23
2018-05-02T23:55:17.560Z,2.60
